Arlington, Vermont
Current Conditions -  °F | °C
As of 12:33 PM on Wednesday 26 Nov 2014 (Local Time) from KDDH Reporting Station
Moderate Snow Moderate Snow  
Wind Chill: 32°   Ceiling: 400
Heat Index: 32°   Visibility: 0.25mi
Dew Point: 31°   Wind: 3mph
Humidity: 96%   Direction: 350°N
Pressure: 30.07"   Gusts: NA
Location:  43.07°N, 73.15°W
Report Text: KDDH 261733Z AUTO 35003KT 1/4SM SN FG VV004 00/M01 A3007 RMK AO2 P0006 T00001006
Loading
Personal Weather Stations






























Interactive Weather Map New forecast layout! Learn more

10-Day Weather Forecast

Advertisements
Track Severe Weather on mobile